sensor_id;sensor_type;location;lat;lon;timestamp;pressure;altitude;pressure_sealevel;temperature;humidity
27429;BME280;14881;48.092;11.574;2024-03-23T00:53:14;94897.16;;;8.12;100.00
27429;BME280;14881;48.092;11.574;2024-03-23T00:55:40;94897.28;;;8.02;100.00
27429;BME280;14881;48.092;11.574;2024-03-23T00:58:07;94894.06;;;7.76;100.00
27429;BME280;14881;48.092;11.574;2024-03-23T01:00:33;94890.75;;;7.55;100.00
27429;BME280;14881;48.092;11.574;2024-03-23T01:03:00;94889.22;;;7.73;100.00
27429;BME280;14881;48.092;11.574;2024-03-23T01:05:26;94887.56;;;7.77;100.00
27429;BME280;14881;48.092;11.574;2024-03-23T01:07:52;94877.09;;;7.42;100.00
27429;BME280;14881;48.092;11.574;2024-03-23T01:10:20;94879.59;;;7.04;100.00
27429;BME280;14881;48.092;11.574;2024-03-23T01:12:46;94874.47;;;6.69;100.00
27429;BME280;14881;48.092;11.574;2024-03-23T01:15:12;94877.91;;;6.40;100.00
27429;BME280;14881;48.092;11.574;2024-03-23T01:17:39;94875.25;;;6.25;100.00
27429;BME280;14881;48.092;11.574;2024-03-23T01:20:06;94873.44;;;6.15;100.00
27429;BME280;14881;48.092;11.574;2024-03-23T01:22:33;94878.06;;;6.05;100.00
27429;BME280;14881;48.092;11.574;2024-03-23T01:24:58;94872.97;;;5.93;100.00
27429;BME280;14881;48.092;11.574;2024-03-23T01:27:27;94882.16;;;5.92;100.00
27429;BME280;14881;48.092;11.574;2024-03-23T01:29:52;94875.41;;;5.89;100.00
27429;BME280;14881;48.092;11.574;2024-03-23T01:32:19;94877.84;;;5.86;100.00
27429;BME280;14881;48.092;11.574;2024-03-23T01:34:45;94875.69;;;5.93;100.00
27429;BME280;14881;48.092;11.574;2024-03-23T01:37:12;94865.69;;;5.93;100.00
27429;BME280;14881;48.092;11.574;2024-03-23T01:39:38;94870.53;;;6.02;100.00
27429;BME280;14881;48.092;11.574;2024-03-23T01:42:05;94862.16;;;6.03;100.00
27429;BME280;14881;48.092;11.574;2024-03-23T01:44:32;94863.81;;;5.99;100.00
27429;BME280;14881;48.092;11.574;2024-03-23T01:46:59;94855.88;;;6.23;100.00
27429;BME280;14881;48.092;11.574;2024-03-23T01:49:25;94851.56;;;6.22;100.00
27429;BME280;14881;48.092;11.574;2024-03-23T01:51:52;94856.59;;;6.39;100.00
27429;BME280;14881;48.092;11.574;2024-03-23T01:54:19;94850.81;;;6.55;100.00
27429;BME280;14881;48.092;11.574;2024-03-23T01:56:46;94846.41;;;6.70;100.00
27429;BME280;14881;48.092;11.574;2024-03-23T01:59:11;94844.06;;;7.21;100.00
27429;BME280;14881;48.092;11.574;2024-03-23T02:01:40;94841.09;;;7.46;100.00
27429;BME280;14881;48.092;11.574;2024-03-23T02:04:07;94825.41;;;7.72;100.00
27429;BME280;14881;48.092;11.574;2024-03-23T02:06:35;94817.69;;;7.84;100.00
27429;BME280;14881;48.092;11.574;2024-03-23T02:09:01;94811.47;;;8.26;100.00
27429;BME280;14881;48.092;11.574;2024-03-23T02:11:29;94813.03;;;8.32;100.00
27429;BME280;14881;48.092;11.574;2024-03-23T02:13:55;94807.16;;;8.25;100.00
27429;BME280;14881;48.092;11.574;2024-03-23T02:16:22;94809.38;;;7.99;100.00
27429;BME280;14881;48.092;11.574;2024-03-23T02:18:49;94809.25;;;7.91;100.00
27429;BME280;14881;48.092;11.574;2024-03-23T02:21:16;94804.94;;;7.90;100.00
27429;BME280;14881;48.092;11.574;2024-03-23T02:23:43;94800.19;;;8.00;100.00
27429;BME280;14881;48.092;11.574;2024-03-23T02:26:10;94791.38;;;8.14;100.00
27429;BME280;14881;48.092;11.574;2024-03-23T02:28:36;94788.66;;;8.32;100.00
27429;BME280;14881;48.092;11.574;2024-03-23T02:31:03;94787.47;;;8.01;100.00
27429;BME280;14881;48.092;11.574;2024-03-23T02:33:30;94793.13;;;7.81;100.00
27429;BME280;14881;48.092;11.574;2024-03-23T02:35:57;94786.56;;;7.87;100.00
27429;BME280;14881;48.092;11.574;2024-03-23T02:38:24;94784.47;;;8.02;100.00
27429;BME280;14881;48.092;11.574;2024-03-23T02:40:51;94768.28;;;8.40;100.00
27429;BME280;14881;48.092;11.574;2024-03-23T02:43:18;94761.00;;;8.54;100.00
27429;BME280;14881;48.092;11.574;2024-03-23T02:45:44;94760.09;;;8.78;100.00
27429;BME280;14881;48.092;11.574;2024-03-23T02:48:10;94757.13;;;8.93;100.00
27429;BME280;14881;48.092;11.574;2024-03-23T02:50:36;94751.06;;;9.15;100.00
27429;BME280;14881;48.092;11.574;2024-03-23T02:53:03;94745.53;;;9.20;100.00
27429;BME280;14881;48.092;11.574;2024-03-23T02:55:29;94748.75;;;9.22;100.00
27429;BME280;14881;48.092;11.574;2024-03-23T02:57:57;94744.63;;;9.24;100.00
27429;BME280;14881;48.092;11.574;2024-03-23T03:00:27;94743.75;;;9.29;100.00
27429;BME280;14881;48.092;11.574;2024-03-23T03:02:54;94746.84;;;9.36;100.00
27429;BME280;14881;48.092;11.574;2024-03-23T03:05:21;94742.56;;;9.35;100.00
27429;BME280;14881;48.092;11.574;2024-03-23T03:07:48;94739.94;;;9.30;100.00
27429;BME280;14881;48.092;11.574;2024-03-23T03:10:14;94742.22;;;9.23;100.00
27429;BME280;14881;48.092;11.574;2024-03-23T03:12:41;94734.69;;;9.20;100.00
27429;BME280;14881;48.092;11.574;2024-03-23T03:15:09;94737.09;;;9.21;100.00
27429;BME280;14881;48.092;11.574;2024-03-23T03:17:36;94731.50;;;9.18;100.00
27429;BME280;14881;48.092;11.574;2024-03-23T03:20:02;94732.16;;;9.10;100.00
27429;BME280;14881;48.092;11.574;2024-03-23T03:22:30;94728.06;;;9.12;100.00
27429;BME280;14881;48.092;11.574;2024-03-23T03:24:56;94724.94;;;9.05;100.00
27429;BME280;14881;48.092;11.574;2024-03-23T03:27:22;94722.63;;;8.98;100.00
27429;BME280;14881;48.092;11.574;2024-03-23T03:29:48;94720.91;;;8.89;100.00
27429;BME280;14881;48.092;11.574;2024-03-23T03:32:16;94714.34;;;8.76;100.00
27429;BME280;14881;48.092;11.574;2024-03-23T03:34:42;94724.09;;;8.77;100.00
27429;BME280;14881;48.092;11.574;2024-03-23T03:37:09;94713.56;;;8.76;100.00
27429;BME280;14881;48.092;11.574;2024-03-23T03:39:35;94711.44;;;8.72;100.00
27429;BME280;14881;48.092;11.574;2024-03-23T03:42:02;94713.75;;;8.65;100.00
27429;BME280;14881;48.092;11.574;2024-03-23T03:44:32;94703.50;;;8.62;100.00
27429;BME280;14881;48.092;11.574;2024-03-23T03:46:59;94707.31;;;8.61;100.00
27429;BME280;14881;48.092;11.574;2024-03-23T03:49:26;94707.09;;;8.58;100.00
27429;BME280;14881;48.092;11.574;2024-03-23T03:51:53;94696.25;;;8.58;100.00
27429;BME280;14881;48.092;11.574;2024-03-23T03:54:18;94710.53;;;8.63;100.00
27429;BME280;14881;48.092;11.574;2024-03-23T03:56:45;94703.09;;;8.69;100.00
27429;BME280;14881;48.092;11.574;2024-03-23T03:59:11;94695.56;;;8.66;100.00
27429;BME280;14881;48.092;11.574;2024-03-23T04:01:38;94692.66;;;8.62;100.00
27429;BME280;14881;48.092;11.574;2024-03-23T04:04:04;94692.78;;;8.71;100.00
27429;BME280;14881;48.092;11.574;2024-03-23T04:06:32;94684.94;;;8.69;100.00
27429;BME280;14881;48.092;11.574;2024-03-23T04:08:58;94682.16;;;8.75;100.00
27429;BME280;14881;48.092;11.574;2024-03-23T04:11:25;94673.53;;;8.72;100.00
27429;BME280;14881;48.092;11.574;2024-03-23T04:13:51;94669.22;;;8.85;100.00
27429;BME280;14881;48.092;11.574;2024-03-23T04:16:25;94666.56;;;8.99;100.00
27429;BME280;14881;48.092;11.574;2024-03-23T04:18:51;94661.13;;;9.26;100.00
27429;BME280;14881;48.092;11.574;2024-03-23T04:21:18;94657.28;;;9.41;100.00
27429;BME280;14881;48.092;11.574;2024-03-23T04:23:45;94644.44;;;9.47;100.00
27429;BME280;14881;48.092;11.574;2024-03-23T04:26:12;94639.63;;;9.43;100.00
27429;BME280;14881;48.092;11.574;2024-03-23T04:28:38;94641.56;;;9.29;100.00
27429;BME280;14881;48.092;11.574;2024-03-23T04:31:05;94639.94;;;9.01;100.00
27429;BME280;14881;48.092;11.574;2024-03-23T04:33:31;94641.16;;;8.81;100.00
27429;BME280;14881;48.092;11.574;2024-03-23T04:35:58;94635.00;;;8.62;100.00
27429;BME280;14881;48.092;11.574;2024-03-23T04:38:23;94632.38;;;8.43;100.00
27429;BME280;14881;48.092;11.574;2024-03-23T04:40:55;94626.59;;;8.31;100.00
27429;BME280;14881;48.092;11.574;2024-03-23T04:43:22;94621.13;;;8.17;100.00
27429;BME280;14881;48.092;11.574;2024-03-23T04:45:49;94631.53;;;8.10;100.00
27429;BME280;14881;48.092;11.574;2024-03-23T04:48:16;94621.25;;;7.93;100.00
27429;BME280;14881;48.092;11.574;2024-03-23T04:50:42;94630.03;;;7.85;100.00
27429;BME280;14881;48.092;11.574;2024-03-23T04:53:08;94625.19;;;7.82;100.00
27429;BME280;14881;48.092;11.574;2024-03-23T04:55:35;94622.50;;;7.82;100.00
27429;BME280;14881;48.092;11.574;2024-03-23T04:58:04;94615.59;;;7.76;100.00
27429;BME280;14881;48.092;11.574;2024-03-23T05:00:30;94609.44;;;7.71;100.00
27429;BME280;14881;48.092;11.574;2024-03-23T05:02:57;94609.44;;;7.52;100.00
27429;BME280;14881;48.092;11.574;2024-03-23T05:05:22;94604.31;;;7.50;100.00
27429;BME280;14881;48.092;11.574;2024-03-23T05:07:49;94592.88;;;7.40;100.00
27429;BME280;14881;48.092;11.574;2024-03-23T05:10:15;94589.44;;;7.34;100.00
27429;BME280;14881;48.092;11.574;2024-03-23T05:12:42;94590.59;;;7.28;100.00
27429;BME280;14881;48.092;11.574;2024-03-23T05:15:11;94591.03;;;7.35;100.00
27429;BME280;14881;48.092;11.574;2024-03-23T05:17:41;94587.19;;;7.41;100.00
27429;BME280;14881;48.092;11.574;2024-03-23T05:20:07;94582.13;;;7.53;100.00
27429;BME280;14881;48.092;11.574;2024-03-23T05:22:35;94578.34;;;7.54;100.00
27429;BME280;14881;48.092;11.574;2024-03-23T05:25:01;94577.47;;;7.59;100.00
27429;BME280;14881;48.092;11.574;2024-03-23T05:27:30;94576.56;;;7.63;100.00
27429;BME280;14881;48.092;11.574;2024-03-23T05:29:56;94573.38;;;7.61;100.00
27429;BME280;14881;48.092;11.574;2024-03-23T05:32:25;94579.78;;;7.65;100.00
27429;BME280;14881;48.092;11.574;2024-03-23T05:34:51;94574.28;;;7.71;100.00
27429;BME280;14881;48.092;11.574;2024-03-23T05:37:21;94565.09;;;7.72;100.00
27429;BME280;14881;48.092;11.574;2024-03-23T05:39:47;94570.63;;;7.80;100.00
27429;BME280;14881;48.092;11.574;2024-03-23T05:42:15;94574.44;;;7.79;100.00
27429;BME280;14881;48.092;11.574;2024-03-23T05:44:43;94566.81;;;7.81;100.00
27429;BME280;14881;48.092;11.574;2024-03-23T05:47:10;94574.34;;;7.84;100.00
27429;BME280;14881;48.092;11.574;2024-03-23T05:49:37;94566.16;;;7.89;100.00
27429;BME280;14881;48.092;11.574;2024-03-23T05:52:04;94560.97;;;7.93;100.00
27429;BME280;14881;48.092;11.574;2024-03-23T05:54:30;94556.31;;;8.12;100.00
27429;BME280;14881;48.092;11.574;2024-03-23T05:56:57;94555.53;;;8.25;100.00
27429;BME280;14881;48.092;11.574;2024-03-23T05:59:22;94557.38;;;8.44;100.00
27429;BME280;14881;48.092;11.574;2024-03-23T06:01:49;94548.84;;;8.50;100.00
27429;BME280;14881;48.092;11.574;2024-03-23T06:04:15;94537.94;;;8.55;100.00
27429;BME280;14881;48.092;11.574;2024-03-23T06:06:44;94530.31;;;8.57;100.00
27429;BME280;14881;48.092;11.574;2024-03-23T06:09:09;94536.94;;;8.65;100.00
27429;BME280;14881;48.092;11.574;2024-03-23T06:11:36;94532.34;;;8.65;100.00
27429;BME280;14881;48.092;11.574;2024-03-23T06:14:02;94524.09;;;8.70;100.00
27429;BME280;14881;48.092;11.574;2024-03-23T06:16:29;94524.81;;;8.62;100.00
27429;BME280;14881;48.092;11.574;2024-03-23T06:18:56;94519.91;;;8.64;100.00
27429;BME280;14881;48.092;11.574;2024-03-23T06:21:24;94518.31;;;8.63;100.00
27429;BME280;14881;48.092;11.574;2024-03-23T06:23:52;94514.50;;;8.64;100.00
27429;BME280;14881;48.092;11.574;2024-03-23T06:26:19;94504.75;;;8.63;100.00
27429;BME280;14881;48.092;11.574;2024-03-23T06:28:47;94498.13;;;8.69;100.00
27429;BME280;14881;48.092;11.574;2024-03-23T06:31:14;94491.56;;;8.84;100.00
27429;BME280;14881;48.092;11.574;2024-03-23T06:33:40;94485.75;;;8.91;100.00
27429;BME280;14881;48.092;11.574;2024-03-23T06:36:09;94483.63;;;9.01;100.00
27429;BME280;14881;48.092;11.574;2024-03-23T06:38:35;94467.84;;;9.17;100.00
27429;BME280;14881;48.092;11.574;2024-03-23T06:41:05;94468.53;;;9.45;100.00
27429;BME280;14881;48.092;11.574;2024-03-23T06:43:31;94452.31;;;9.76;100.00
27429;BME280;14881;48.092;11.574;2024-03-23T06:45:58;94443.91;;;9.86;100.00
27429;BME280;14881;48.092;11.574;2024-03-23T06:48:24;94423.06;;;9.95;100.00
27429;BME280;14881;48.092;11.574;2024-03-23T06:50:55;94423.53;;;9.97;100.00
27429;BME280;14881;48.092;11.574;2024-03-23T06:53:21;94425.63;;;10.00;100.00
27429;BME280;14881;48.092;11.574;2024-03-23T06:55:50;94419.47;;;10.17;100.00
27429;BME280;14881;48.092;11.574;2024-03-23T06:58:19;94418.94;;;10.37;100.00
27429;BME280;14881;48.092;11.574;2024-03-23T07:00:46;94420.44;;;10.61;100.00
27429;BME280;14881;48.092;11.574;2024-03-23T07:03:18;94412.00;;;10.88;100.00
27429;BME280;14881;48.092;11.574;2024-03-23T07:05:53;94408.31;;;11.10;100.00
27429;BME280;14881;48.092;11.574;2024-03-23T07:08:31;94405.59;;;11.44;100.00
27429;BME280;14881;48.092;11.574;2024-03-23T07:10:57;94397.56;;;11.74;100.00
27429;BME280;14881;48.092;11.574;2024-03-23T07:13:24;94395.41;;;12.05;100.00
27429;BME280;14881;48.092;11.574;2024-03-23T07:15:52;94398.69;;;12.28;100.00
27429;BME280;14881;48.092;11.574;2024-03-23T07:18:17;94392.47;;;12.48;100.00
27429;BME280;14881;48.092;11.574;2024-03-23T07:20:52;94405.88;;;12.62;100.00
27429;BME280;14881;48.092;11.574;2024-03-23T07:23:18;94393.28;;;12.78;100.00
27429;BME280;14881;48.092;11.574;2024-03-23T07:25:44;94394.28;;;12.95;100.00
27429;BME280;14881;48.092;11.574;2024-03-23T07:28:10;94394.81;;;13.09;100.00
27429;BME280;14881;48.092;11.574;2024-03-23T07:30:38;94390.91;;;13.39;100.00
27429;BME280;14881;48.092;11.574;2024-03-23T07:33:04;94387.47;;;13.63;100.00
27429;BME280;14881;48.092;11.574;2024-03-23T07:35:31;94407.78;;;13.86;100.00
27429;BME280;14881;48.092;11.574;2024-03-23T07:37:57;94411.38;;;14.11;100.00
27429;BME280;14881;48.092;11.574;2024-03-23T07:40:31;94418.09;;;14.26;100.00
27429;BME280;14881;48.092;11.574;2024-03-23T07:42:56;94438.81;;;14.27;100.00
27429;BME280;14881;48.092;11.574;2024-03-23T07:45:23;94448.38;;;14.21;100.00
27429;BME280;14881;48.092;11.574;2024-03-23T07:47:51;94478.19;;;14.14;100.00
27429;BME280;14881;48.092;11.574;2024-03-23T07:50:17;94496.28;;;13.85;100.00
27429;BME280;14881;48.092;11.574;2024-03-23T07:52:43;94512.28;;;13.54;100.00
27429;BME280;14881;48.092;11.574;2024-03-23T07:55:10;94526.59;;;12.92;100.00
27429;BME280;14881;48.092;11.574;2024-03-23T07:57:36;94536.06;;;12.48;100.00
27429;BME280;14881;48.092;11.574;2024-03-23T08:00:04;94547.03;;;12.13;100.00
27429;BME280;14881;48.092;11.574;2024-03-23T08:02:30;94546.75;;;11.89;100.00
27429;BME280;14881;48.092;11.574;2024-03-23T08:04:58;94532.97;;;11.68;100.00
27429;BME280;14881;48.092;11.574;2024-03-23T08:07:24;94569.56;;;11.45;100.00
27429;BME280;14881;48.092;11.574;2024-03-23T08:09:51;94577.16;;;11.08;100.00
27429;BME280;14881;48.092;11.574;2024-03-23T08:12:17;94589.06;;;10.73;100.00
27429;BME280;14881;48.092;11.574;2024-03-23T08:14:43;94581.25;;;10.49;100.00
27429;BME280;14881;48.092;11.574;2024-03-23T08:17:09;94598.38;;;10.27;100.00
27429;BME280;14881;48.092;11.574;2024-03-23T08:19:36;94621.97;;;10.04;100.00
27429;BME280;14881;48.092;11.574;2024-03-23T08:22:03;94631.81;;;9.78;100.00
27429;BME280;14881;48.092;11.574;2024-03-23T08:24:30;94651.47;;;9.48;100.00
27429;BME280;14881;48.092;11.574;2024-03-23T08:26:56;94657.50;;;9.31;100.00
27429;BME280;14881;48.092;11.574;2024-03-23T08:29:23;94666.94;;;9.20;100.00
27429;BME280;14881;48.092;11.574;2024-03-23T08:31:48;94674.09;;;9.16;100.00
27429;BME280;14881;48.092;11.574;2024-03-23T08:34:15;94680.47;;;9.06;100.00
27429;BME280;14881;48.092;11.574;2024-03-23T08:36:41;94691.53;;;9.10;100.00
27429;BME280;14881;48.092;11.574;2024-03-23T08:39:09;94710.59;;;9.04;100.00
27429;BME280;14881;48.092;11.574;2024-03-23T08:41:35;94732.16;;;8.96;100.00
27429;BME280;14881;48.092;11.574;2024-03-23T08:44:02;94739.00;;;8.61;100.00
27429;BME280;14881;48.092;11.574;2024-03-23T08:46:28;94734.19;;;8.39;100.00
27429;BME280;14881;48.092;11.574;2024-03-23T08:48:54;94736.28;;;8.23;100.00
27429;BME280;14881;48.092;11.574;2024-03-23T08:51:20;94760.41;;;8.20;100.00
27429;BME280;14881;48.092;11.574;2024-03-23T08:53:47;94761.81;;;8.17;100.00
27429;BME280;14881;48.092;11.574;2024-03-23T08:56:14;94771.47;;;8.04;100.00
27429;BME280;14881;48.092;11.574;2024-03-23T08:58:41;94789.13;;;7.97;100.00
27429;BME280;14881;48.092;11.574;2024-03-23T09:01:08;94784.38;;;7.89;100.00
27429;BME280;14881;48.092;11.574;2024-03-23T09:03:34;94791.75;;;7.83;100.00
27429;BME280;14881;48.092;11.574;2024-03-23T09:06:02;94802.34;;;7.80;100.00
27429;BME280;14881;48.092;11.574;2024-03-23T09:08:28;94810.16;;;7.81;100.00
27429;BME280;14881;48.092;11.574;2024-03-23T09:10:55;94805.78;;;7.85;100.00
27429;BME280;14881;48.092;11.574;2024-03-23T09:13:22;94801.56;;;7.79;100.00
27429;BME280;14881;48.092;11.574;2024-03-23T09:15:50;94793.44;;;7.79;100.00
27429;BME280;14881;48.092;11.574;2024-03-23T09:18:17;94792.84;;;7.82;100.00
27429;BME280;14881;48.092;11.574;2024-03-23T09:20:43;94808.44;;;7.90;100.00
27429;BME280;14881;48.092;11.574;2024-03-23T09:23:09;94803.88;;;7.86;100.00
27429;BME280;14881;48.092;11.574;2024-03-23T09:25:36;94802.00;;;7.86;100.00
27429;BME280;14881;48.092;11.574;2024-03-23T09:28:03;94805.22;;;7.88;100.00
27429;BME280;14881;48.092;11.574;2024-03-23T09:30:32;94805.28;;;7.83;100.00
27429;BME280;14881;48.092;11.574;2024-03-23T09:32:58;94822.19;;;7.94;100.00
27429;BME280;14881;48.092;11.574;2024-03-23T09:35:25;94810.78;;;7.97;100.00
27429;BME280;14881;48.092;11.574;2024-03-23T09:37:50;94830.06;;;7.90;100.00
27429;BME280;14881;48.092;11.574;2024-03-23T09:40:17;94831.59;;;7.78;100.00
27429;BME280;14881;48.092;11.574;2024-03-23T09:42:49;94834.34;;;7.73;100.00
27429;BME280;14881;48.092;11.574;2024-03-23T09:45:19;94837.38;;;7.66;100.00
27429;BME280;14881;48.092;11.574;2024-03-23T09:47:48;94845.84;;;7.59;100.00
27429;BME280;14881;48.092;11.574;2024-03-23T09:50:16;94852.56;;;7.62;100.00
27429;BME280;14881;48.092;11.574;2024-03-23T09:52:42;94858.13;;;7.47;100.00
27429;BME280;14881;48.092;11.574;2024-03-23T09:55:09;94858.63;;;7.25;100.00
27429;BME280;14881;48.092;11.574;2024-03-23T09:57:35;94867.03;;;7.18;100.00
27429;BME280;14881;48.092;11.574;2024-03-23T10:00:02;94870.88;;;7.12;100.00
27429;BME280;14881;48.092;11.574;2024-03-23T10:02:28;94880.19;;;6.96;100.00
27429;BME280;14881;48.092;11.574;2024-03-23T10:04:57;94877.28;;;6.92;100.00
27429;BME280;14881;48.092;11.574;2024-03-23T10:07:23;94900.50;;;6.88;100.00
27429;BME280;14881;48.092;11.574;2024-03-23T10:09:51;94895.41;;;6.87;100.00
27429;BME280;14881;48.092;11.574;2024-03-23T10:12:18;94884.66;;;6.77;100.00
27429;BME280;14881;48.092;11.574;2024-03-23T10:14:46;94891.44;;;6.74;100.00
27429;BME280;14881;48.092;11.574;2024-03-23T10:17:13;94889.25;;;6.76;100.00
27429;BME280;14881;48.092;11.574;2024-03-23T10:19:41;94888.53;;;6.60;100.00
27429;BME280;14881;48.092;11.574;2024-03-23T10:22:10;94882.13;;;6.56;100.00
27429;BME280;14881;48.092;11.574;2024-03-23T10:24:37;94891.81;;;6.57;100.00
27429;BME280;14881;48.092;11.574;2024-03-23T10:27:03;94874.53;;;6.58;100.00
27429;BME280;14881;48.092;11.574;2024-03-23T10:29:30;94881.53;;;6.59;100.00
27429;BME280;14881;48.092;11.574;2024-03-23T10:32:07;94892.09;;;6.56;100.00
27429;BME280;14881;48.092;11.574;2024-03-23T10:34:35;94890.13;;;6.67;100.00
27429;BME280;14881;48.092;11.574;2024-03-23T10:37:02;94890.66;;;6.69;100.00
27429;BME280;14881;48.092;11.574;2024-03-23T10:39:33;94893.66;;;6.62;100.00
27429;BME280;14881;48.092;11.574;2024-03-23T10:42:01;94900.16;;;6.61;100.00
27429;BME280;14881;48.092;11.574;2024-03-23T10:44:29;94910.94;;;6.61;100.00
27429;BME280;14881;48.092;11.574;2024-03-23T10:46:57;94943.38;;;6.56;100.00
27429;BME280;14881;48.092;11.574;2024-03-23T10:49:26;94943.69;;;6.44;100.00
27429;BME280;14881;48.092;11.574;2024-03-23T10:51:53;94970.22;;;6.22;100.00
27429;BME280;14881;48.092;11.574;2024-03-23T10:54:21;94957.34;;;5.99;100.00
27429;BME280;14881;48.092;11.574;2024-03-23T10:56:52;94967.84;;;6.05;100.00
27429;BME280;14881;48.092;11.574;2024-03-23T10:59:20;94956.28;;;6.00;100.00
27429;BME280;14881;48.092;11.574;2024-03-23T11:01:56;94972.44;;;5.94;100.00
27429;BME280;14881;48.092;11.574;2024-03-23T11:04:30;94958.44;;;5.92;100.00
27429;BME280;14881;48.092;11.574;2024-03-23T11:06:57;94968.13;;;5.99;100.00
27429;BME280;14881;48.092;11.574;2024-03-23T11:09:41;94971.03;;;6.22;100.00
27429;BME280;14881;48.092;11.574;2024-03-23T11:12:27;94964.53;;;6.23;100.00
27429;BME280;14881;48.092;11.574;2024-03-23T11:15:00;94972.63;;;6.23;100.00
27429;BME280;14881;48.092;11.574;2024-03-23T11:17:27;94973.69;;;6.27;100.00
27429;BME280;14881;48.092;11.574;2024-03-23T11:19:55;94983.94;;;6.36;100.00
27429;BME280;14881;48.092;11.574;2024-03-23T11:22:41;94993.09;;;6.40;100.00
27429;BME280;14881;48.092;11.574;2024-03-23T11:25:16;94982.53;;;6.43;100.00
27429;BME280;14881;48.092;11.574;2024-03-23T11:27:44;94964.16;;;6.50;100.00
27429;BME280;14881;48.092;11.574;2024-03-23T11:30:13;94950.66;;;6.55;100.00
27429;BME280;14881;48.092;11.574;2024-03-23T11:32:39;94937.91;;;6.66;100.00
27429;BME280;14881;48.092;11.574;2024-03-23T11:35:07;94939.78;;;6.71;100.00
27429;BME280;14881;48.092;11.574;2024-03-23T11:37:34;94942.94;;;6.78;100.00
27429;BME280;14881;48.092;11.574;2024-03-23T11:40:16;94951.31;;;6.76;100.00
27429;BME280;14881;48.092;11.574;2024-03-23T11:42:43;94965.97;;;6.70;100.00
27429;BME280;14881;48.092;11.574;2024-03-23T11:45:11;94968.41;;;6.67;100.00
27429;BME280;14881;48.092;11.574;2024-03-23T11:47:37;94943.31;;;6.66;100.00
27429;BME280;14881;48.092;11.574;2024-03-23T11:50:04;94951.69;;;6.64;100.00
27429;BME280;14881;48.092;11.574;2024-03-23T11:52:31;94949.50;;;6.67;100.00
27429;BME280;14881;48.092;11.574;2024-03-23T11:55:05;94933.53;;;6.75;100.00
27429;BME280;14881;48.092;11.574;2024-03-23T11:57:33;94923.78;;;6.79;100.00
27429;BME280;14881;48.092;11.574;2024-03-23T12:00:01;94938.09;;;6.80;100.00
27429;BME280;14881;48.092;11.574;2024-03-23T12:02:27;94927.25;;;6.85;100.00
27429;BME280;14881;48.092;11.574;2024-03-23T12:04:54;94946.94;;;6.90;100.00
27429;BME280;14881;48.092;11.574;2024-03-23T12:07:20;94941.44;;;7.06;100.00
27429;BME280;14881;48.092;11.574;2024-03-23T12:09:49;94939.53;;;7.06;100.00
27429;BME280;14881;48.092;11.574;2024-03-23T12:12:27;94925.06;;;6.92;100.00
27429;BME280;14881;48.092;11.574;2024-03-23T12:15:03;94926.97;;;6.86;100.00
27429;BME280;14881;48.092;11.574;2024-03-23T12:17:30;94910.53;;;6.83;100.00
27429;BME280;14881;48.092;11.574;2024-03-23T12:19:57;94908.63;;;6.83;100.00
27429;BME280;14881;48.092;11.574;2024-03-23T12:22:24;94925.91;;;6.87;100.00
27429;BME280;14881;48.092;11.574;2024-03-23T12:24:51;94924.56;;;6.85;100.00
27429;BME280;14881;48.092;11.574;2024-03-23T12:27:17;94921.34;;;6.83;100.00
27429;BME280;14881;48.092;11.574;2024-03-23T12:29:44;94924.03;;;6.83;100.00
27429;BME280;14881;48.092;11.574;2024-03-23T12:32:13;94921.34;;;6.83;100.00
27429;BME280;14881;48.092;11.574;2024-03-23T12:34:41;94908.09;;;6.86;100.00
27429;BME280;14881;48.092;11.574;2024-03-23T12:37:07;94894.63;;;6.76;100.00
27429;BME280;14881;48.092;11.574;2024-03-23T12:39:34;94903.59;;;6.72;100.00
27429;BME280;14881;48.092;11.574;2024-03-23T12:42:01;94910.72;;;6.52;100.00
27429;BME280;14881;48.092;11.574;2024-03-23T12:44:28;94907.06;;;6.77;100.00
27429;BME280;14881;48.092;11.574;2024-03-23T12:46:54;94909.75;;;6.77;100.00
27429;BME280;14881;48.092;11.574;2024-03-23T12:49:22;94916.75;;;6.83;100.00
27429;BME280;14881;48.092;11.574;2024-03-23T12:51:53;94914.28;;;6.87;100.00
27429;BME280;14881;48.092;11.574;2024-03-23T12:54:21;94915.75;;;7.08;100.00
27429;BME280;14881;48.092;11.574;2024-03-23T12:56:47;94908.16;;;7.10;100.00
27429;BME280;14881;48.092;11.574;2024-03-23T12:59:14;94902.06;;;7.28;100.00
27429;BME280;14881;48.092;11.574;2024-03-23T13:01:40;94908.81;;;7.31;100.00
27429;BME280;14881;48.092;11.574;2024-03-23T13:04:07;94909.56;;;7.37;100.00
27429;BME280;14881;48.092;11.574;2024-03-23T13:06:34;94918.50;;;7.37;100.00
27429;BME280;14881;48.092;11.574;2024-03-23T13:09:02;94905.16;;;7.46;100.00
27429;BME280;14881;48.092;11.574;2024-03-23T13:11:28;94905.06;;;7.27;100.00
27429;BME280;14881;48.092;11.574;2024-03-23T13:13:55;94894.06;;;7.18;100.00
27429;BME280;14881;48.092;11.574;2024-03-23T13:16:21;94881.25;;;7.29;100.00
27429;BME280;14881;48.092;11.574;2024-03-23T13:18:48;94884.91;;;7.14;100.00
27429;BME280;14881;48.092;11.574;2024-03-23T13:21:17;94876.41;;;6.97;100.00
27429;BME280;14881;48.092;11.574;2024-03-23T13:23:47;94874.22;;;6.99;100.00
27429;BME280;14881;48.092;11.574;2024-03-23T13:26:14;94869.56;;;7.10;100.00
27429;BME280;14881;48.092;11.574;2024-03-23T13:28:40;94858.56;;;7.01;100.00
27429;BME280;14881;48.092;11.574;2024-03-23T13:31:07;94839.94;;;6.99;100.00
27429;BME280;14881;48.092;11.574;2024-03-23T13:33:34;94861.97;;;7.12;100.00
27429;BME280;14881;48.092;11.574;2024-03-23T13:36:00;94860.13;;;7.07;100.00
27429;BME280;14881;48.092;11.574;2024-03-23T13:38:29;94851.03;;;7.27;100.00
27429;BME280;14881;48.092;11.574;2024-03-23T13:40:57;94844.47;;;7.33;100.00